Time;durP1;ratioP1;P1;durP2;ratioP2;P2;SDS_P1;SDS_P2;PMS_P1;PMS_P2;Temp;Humidity;BMP_temperature;BMP_pressure;BME280_temperature;BME280_humidity;BME280_pressure;Samples;Min_cycle;Max_cycle;Signal;HPM_P1;HPM_P2
2023/07/29 00:00:42;;;;;;;2.30;1.20;;;;;;;;;;4913380;28;98943;-76
2023/07/29 00:03:09;;;;;;;2.30;1.00;;;;;;;;;;4913553;28;98227;-77
2023/07/29 00:05:38;;;;;;;1.15;1.05;;;;;;;;;;4911659;28;98392;-77
2023/07/29 00:08:05;;;;;;;1.00;0.90;;;;;;;;;;4915731;28;100221;-76
2023/07/29 00:10:32;;;;;;;3.97;1.30;;;;;;;;;;4912548;28;98543;-77
2023/07/29 00:12:59;;;;;;;1.70;1.20;;;;;;;;;;4911792;28;99537;-76
2023/07/29 00:15:25;;;;;;;3.13;1.17;;;;;;;;;;4912529;28;98276;-78
2023/07/29 00:17:52;;;;;;;2.00;1.05;;;;;;;;;;4910431;28;99680;-77
2023/07/29 00:20:18;;;;;;;0.80;0.80;;;;;;;;;;4892314;28;99138;-76
2023/07/29 00:22:45;;;;;;;6.70;0.98;;;;;;;;;;4903634;28;98869;-77
2023/07/29 00:25:11;;;;;;;8.15;1.83;;;;;;;;;;4914629;28;98669;-77
2023/07/29 00:27:38;;;;;;;1.48;1.25;;;;;;;;;;4910490;28;99326;-77
2023/07/29 00:30:04;;;;;;;1.45;1.30;;;;;;;;;;4915854;28;98305;-75
2023/07/29 00:32:31;;;;;;;4.43;1.23;;;;;;;;;;4910094;28;100217;-77
2023/07/29 00:35:00;;;;;;;1.33;1.23;;;;;;;;;;4912738;28;98163;-77
2023/07/29 00:37:27;;;;;;;2.10;1.20;;;;;;;;;;4910186;28;100249;-76
2023/07/29 00:39:54;;;;;;;1.20;1.10;;;;;;;;;;4911398;28;99004;-76
2023/07/29 00:42:21;;;;;;;1.10;1.10;;;;;;;;;;4912041;28;98283;-77
2023/07/29 00:44:47;;;;;;;1.27;1.15;;;;;;;;;;4924482;28;98330;-77
2023/07/29 00:47:15;;;;;;;1.20;1.10;;;;;;;;;;4909756;28;99141;-77
2023/07/29 00:49:42;;;;;;;1.60;1.00;;;;;;;;;;4911650;28;98246;-78
2023/07/29 00:52:11;;;;;;;2.50;1.40;;;;;;;;;;4915392;28;99898;-78
2023/07/29 00:54:40;;;;;;;2.72;1.35;;;;;;;;;;4911543;28;98356;-77
2023/07/29 00:57:08;;;;;;;2.58;1.17;;;;;;;;;;4912094;28;98712;-76
2023/07/29 00:59:35;;;;;;;2.90;1.48;;;;;;;;;;4910368;28;101811;-77
2023/07/29 01:02:02;;;;;;;4.35;1.52;;;;;;;;;;4911067;28;98281;-77
2023/07/29 01:04:30;;;;;;;2.20;1.05;;;;;;;;;;4910249;28;98688;-77
2023/07/29 01:07:10;;;;;;;1.15;1.08;;;;;;;;;;4909572;28;101524;-77
2023/07/29 01:09:48;;;;;;;2.47;1.23;;;;;;;;;;4890663;28;98488;-77
2023/07/29 01:12:35;;;;;;;2.25;1.70;;;;;;;;;;4926438;28;99592;-77
2023/07/29 01:15:09;;;;;;;2.80;1.35;;;;;;;;;;4870547;28;98489;-75
2023/07/29 01:17:39;;;;;;;7.40;1.55;;;;;;;;;;4907312;28;99465;-78
2023/07/29 01:20:13;;;;;;;4.72;1.80;;;;;;;;;;4911498;28;99872;-77
2023/07/29 01:22:40;;;;;;;1.63;1.23;;;;;;;;;;4909738;28;98142;-75
2023/07/29 01:25:06;;;;;;;3.90;1.38;;;;;;;;;;4911594;28;99541;-76
2023/07/29 01:27:33;;;;;;;8.55;1.88;;;;;;;;;;4909895;28;101260;-76
2023/07/29 01:30:00;;;;;;;2.78;1.50;;;;;;;;;;4910777;28;98218;-76
2023/07/29 01:32:35;;;;;;;2.35;1.60;;;;;;;;;;4911755;28;98586;-77
2023/07/29 01:35:20;;;;;;;5.70;2.10;;;;;;;;;;4912891;28;100091;-77
2023/07/29 01:37:49;;;;;;;4.57;2.75;;;;;;;;;;4912677;28;98888;-76
2023/07/29 01:40:16;;;;;;;2.45;1.45;;;;;;;;;;4910468;28;99394;-75
2023/07/29 01:42:43;;;;;;;3.78;1.73;;;;;;;;;;4920936;28;99026;-76
2023/07/29 01:45:10;;;;;;;4.05;1.75;;;;;;;;;;4927982;28;100882;-77
2023/07/29 01:47:40;;;;;;;1.88;1.70;;;;;;;;;;4930549;28;100060;-77
2023/07/29 01:50:07;;;;;;;3.08;1.85;;;;;;;;;;4929941;28;98228;-77
2023/07/29 01:52:33;;;;;;;4.63;1.92;;;;;;;;;;4928019;28;100761;-77
2023/07/29 01:55:00;;;;;;;5.55;2.47;;;;;;;;;;4911065;28;99924;-77
2023/07/29 01:57:26;;;;;;;3.10;1.92;;;;;;;;;;4912411;28;98505;-77
2023/07/29 01:59:53;;;;;;;5.13;2.67;;;;;;;;;;4910016;28;99960;-77
2023/07/29 02:02:20;;;;;;;4.50;2.40;;;;;;;;;;4905158;28;98383;-76
2023/07/29 02:04:51;;;;;;;5.10;2.38;;;;;;;;;;4894238;28;101547;-77
2023/07/29 02:07:19;;;;;;;5.68;2.88;;;;;;;;;;4893306;28;101176;-77
2023/07/29 02:09:45;;;;;;;7.85;2.67;;;;;;;;;;4910967;28;98094;-77
2023/07/29 02:12:12;;;;;;;3.25;2.03;;;;;;;;;;4915601;28;99658;-76
2023/07/29 02:14:38;;;;;;;10.98;2.80;;;;;;;;;;4930226;28;98856;-76
2023/07/29 02:17:05;;;;;;;7.13;2.60;;;;;;;;;;4930542;28;98166;-77
2023/07/29 02:19:31;;;;;;;8.65;2.60;;;;;;;;;;4931144;28;101313;-76
2023/07/29 02:21:58;;;;;;;3.17;2.47;;;;;;;;;;4927909;28;98568;-77
2023/07/29 02:24:25;;;;;;;6.43;2.92;;;;;;;;;;4909096;28;100420;-78
2023/07/29 02:26:51;;;;;;;2.58;2.40;;;;;;;;;;4924500;28;99313;-77
2023/07/29 02:29:17;;;;;;;3.22;2.70;;;;;;;;;;4909912;28;98195;-78
2023/07/29 02:31:44;;;;;;;9.63;2.88;;;;;;;;;;4909785;28;98602;-76
2023/07/29 02:34:10;;;;;;;3.05;2.45;;;;;;;;;;4908288;28;101045;-78
2023/07/29 02:36:37;;;;;;;6.55;2.60;;;;;;;;;;4909362;28;98280;-77
2023/07/29 02:39:04;;;;;;;9.02;2.78;;;;;;;;;;4908851;28;98646;-76
2023/07/29 02:41:31;;;;;;;7.93;3.25;;;;;;;;;;4912398;28;99344;-77
2023/07/29 02:43:57;;;;;;;6.47;3.03;;;;;;;;;;4926164;28;98861;-77
2023/07/29 02:46:24;;;;;;;6.95;3.83;;;;;;;;;;4908375;28;100536;-76
2023/07/29 02:48:50;;;;;;;4.00;2.78;;;;;;;;;;4912439;28;98394;-77
2023/07/29 02:51:17;;;;;;;5.20;3.05;;;;;;;;;;4911903;28;100568;-76
2023/07/29 02:53:44;;;;;;;6.82;2.95;;;;;;;;;;4912271;28;99001;-77
2023/07/29 02:56:11;;;;;;;6.50;3.60;;;;;;;;;;4907806;28;98362;-77
2023/07/29 02:58:38;;;;;;;3.80;3.40;;;;;;;;;;4894850;28;98386;-77
2023/07/29 03:01:05;;;;;;;6.28;3.60;;;;;;;;;;4897465;28;99178;-77
2023/07/29 03:03:33;;;;;;;7.22;3.50;;;;;;;;;;4916753;28;99186;-77
2023/07/29 03:06:08;;;;;;;10.82;3.50;;;;;;;;;;4912193;28;101428;-77
2023/07/29 03:08:36;;;;;;;5.15;3.75;;;;;;;;;;4910650;28;98386;-77
2023/07/29 03:11:07;;;;;;;4.50;3.53;;;;;;;;;;4912607;28;98024;-76
2023/07/29 03:13:33;;;;;;;5.78;3.40;;;;;;;;;;4912243;28;101762;-77
2023/07/29 03:16:06;;;;;;;3.95;3.63;;;;;;;;;;4914134;28;98382;-77
2023/07/29 03:18:33;;;;;;;5.85;3.58;;;;;;;;;;4912724;28;98554;-77
2023/07/29 03:21:00;;;;;;;8.40;4.07;;;;;;;;;;4912162;28;101558;-77
2023/07/29 03:23:27;;;;;;;7.40;3.50;;;;;;;;;;4910993;28;98434;-77
2023/07/29 03:25:58;;;;;;;9.52;3.60;;;;;;;;;;4907961;28;101798;-77
2023/07/29 03:28:29;;;;;;;8.77;3.67;;;;;;;;;;4911185;28;98211;-77
2023/07/29 03:30:56;;;;;;;6.95;3.15;;;;;;;;;;4913458;28;98365;-77
2023/07/29 03:33:23;;;;;;;4.82;3.38;;;;;;;;;;4911233;28;101005;-77
2023/07/29 03:35:49;;;;;;;5.85;3.45;;;;;;;;;;4912644;28;98227;-76
2023/07/29 03:38:15;;;;;;;4.10;3.35;;;;;;;;;;4913228;28;98500;-76
2023/07/29 03:40:42;;;;;;;10.45;3.78;;;;;;;;;;4911652;28;102724;-78
2023/07/29 03:43:09;;;;;;;7.47;3.30;;;;;;;;;;4910133;28;98582;-76
2023/07/29 03:45:35;;;;;;;3.72;3.13;;;;;;;;;;4896721;28;98655;-77
2023/07/29 03:48:03;;;;;;;9.05;3.00;;;;;;;;;;4908917;28;98436;-77
2023/07/29 03:50:30;;;;;;;6.72;3.03;;;;;;;;;;4892854;28;99503;-77
2023/07/29 03:52:57;;;;;;;3.80;3.00;;;;;;;;;;4905360;28;98909;-78
2023/07/29 03:55:23;;;;;;;11.00;3.50;;;;;;;;;;4910966;28;98465;-77
2023/07/29 03:57:50;;;;;;;4.03;3.70;;;;;;;;;;4911741;28;99359;-77
2023/07/29 04:00:16;;;;;;;5.30;3.17;;;;;;;;;;4912499;28;100032;-77
2023/07/29 04:02:46;;;;;;;5.70;3.05;;;;;;;;;;4911628;28;98288;-78
2023/07/29 04:05:13;;;;;;;7.68;3.75;;;;;;;;;;4910578;28;100559;-77
2023/07/29 04:07:40;;;;;;;3.80;3.60;;;;;;;;;;4906789;28;101447;-78
2023/07/29 04:10:06;;;;;;;4.20;3.70;;;;;;;;;;4905138;28;101053;-78
2023/07/29 04:12:33;;;;;;;6.32;3.70;;;;;;;;;;4910267;28;101720;-78
2023/07/29 04:14:59;;;;;;;7.85;3.75;;;;;;;;;;4911296;28;98297;-76
2023/07/29 04:17:26;;;;;;;7.28;3.15;;;;;;;;;;4911397;28;100373;-77
2023/07/29 04:19:52;;;;;;;6.47;3.35;;;;;;;;;;4912198;28;99768;-78
2023/07/29 04:22:22;;;;;;;4.30;3.67;;;;;;;;;;4907602;28;98384;-78
2023/07/29 04:24:48;;;;;;;6.65;3.17;;;;;;;;;;4897999;28;100829;-77
2023/07/29 04:27:15;;;;;;;3.72;3.17;;;;;;;;;;4910265;28;101823;-77
2023/07/29 04:29:41;;;;;;;7.35;3.67;;;;;;;;;;4915704;28;98656;-77
2023/07/29 04:32:08;;;;;;;3.40;2.85;;;;;;;;;;4910589;28;99224;-76
2023/07/29 04:34:34;;;;;;;4.00;2.70;;;;;;;;;;4912468;28;98092;-77
2023/07/29 04:37:01;;;;;;;3.33;2.88;;;;;;;;;;4911114;28;100323;-77
2023/07/29 04:39:27;;;;;;;3.35;2.92;;;;;;;;;;4909238;28;99553;-77
2023/07/29 04:41:54;;;;;;;6.85;2.78;;;;;;;;;;4913482;28;98195;-77
2023/07/29 04:44:20;;;;;;;3.30;3.00;;;;;;;;;;4910702;28;99520;-77
2023/07/29 04:46:46;;;;;;;2.80;2.40;;;;;;;;;;4911352;28;99024;-77
2023/07/29 04:49:13;;;;;;;5.13;2.85;;;;;;;;;;4912334;28;98166;-77
2023/07/29 04:51:39;;;;;;;8.48;2.40;;;;;;;;;;4915243;28;98567;-78
2023/07/29 04:54:06;;;;;;;2.65;2.45;;;;;;;;;;4909843;28;98450;-77
2023/07/29 04:56:32;;;;;;;4.40;2.95;;;;;;;;;;4909880;28;99440;-78
2023/07/29 04:58:59;;;;;;;3.55;2.50;;;;;;;;;;4910647;28;101704;-78
2023/07/29 05:01:25;;;;;;;5.80;2.20;;;;;;;;;;4909626;28;98223;-76
2023/07/29 05:03:52;;;;;;;5.07;2.70;;;;;;;;;;4898183;28;99169;-78
2023/07/29 05:06:19;;;;;;;2.30;2.10;;;;;;;;;;4910082;28;99515;-76
2023/07/29 05:08:45;;;;;;;5.22;2.55;;;;;;;;;;4893979;28;98270;-77
2023/07/29 05:11:12;;;;;;;3.75;2.30;;;;;;;;;;4901445;28;99621;-77
2023/07/29 05:13:39;;;;;;;4.10;2.30;;;;;;;;;;4933070;28;98251;-76
2023/07/29 05:16:05;;;;;;;2.17;2.08;;;;;;;;;;4928914;28;100767;-77
2023/07/29 05:18:32;;;;;;;3.38;2.10;;;;;;;;;;4912268;28;99116;-77
2023/07/29 05:20:59;;;;;;;2.53;2.10;;;;;;;;;;4905404;28;98289;-77
2023/07/29 05:23:26;;;;;;;2.00;1.90;;;;;;;;;;4909614;28;100256;-77
2023/07/29 05:25:52;;;;;;;2.63;2.42;;;;;;;;;;4914241;28;100936;-77
2023/07/29 05:28:19;;;;;;;3.97;2.13;;;;;;;;;;4910793;28;98143;-76
2023/07/29 05:30:45;;;;;;;1.95;1.85;;;;;;;;;;4909600;28;100334;-77
2023/07/29 05:33:12;;;;;;;2.00;1.90;;;;;;;;;;4912959;28;100640;-76
2023/07/29 05:35:39;;;;;;;2.47;2.15;;;;;;;;;;4910580;28;99804;-76
2023/07/29 05:38:08;;;;;;;2.13;1.75;;;;;;;;;;4910418;28;99020;-76
2023/07/29 05:40:34;;;;;;;2.25;2.03;;;;;;;;;;4911221;28;97956;-77
2023/07/29 05:43:01;;;;;;;3.63;2.22;;;;;;;;;;4906397;28;99619;-75
2023/07/29 05:45:27;;;;;;;5.10;2.58;;;;;;;;;;4891007;28;100131;-76
2023/07/29 05:47:54;;;;;;;3.97;2.42;;;;;;;;;;4906568;28;98243;-77
2023/07/29 05:50:20;;;;;;;4.18;2.33;;;;;;;;;;4889461;28;100814;-76
2023/07/29 05:52:47;;;;;;;2.53;2.28;;;;;;;;;;4909328;28;99031;-76
2023/07/29 05:55:14;;;;;;;4.85;2.35;;;;;;;;;;4914550;28;98215;-76
2023/07/29 05:57:45;;;;;;;5.15;2.35;;;;;;;;;;4909101;28;98848;-77
2023/07/29 06:00:12;;;;;;;5.13;2.80;;;;;;;;;;4909632;28;98282;-76
2023/07/29 06:02:40;;;;;;;3.85;2.70;;;;;;;;;;4909842;28;98311;-76
2023/07/29 06:05:09;;;;;;;3.20;2.10;;;;;;;;;;4907966;28;101322;-76
2023/07/29 06:07:36;;;;;;;3.55;2.50;;;;;;;;;;4910178;28;98217;-78
2023/07/29 06:10:03;;;;;;;2.65;2.20;;;;;;;;;;4910198;28;98753;-76
2023/07/29 06:12:29;;;;;;;6.32;2.38;;;;;;;;;;4909187;28;101537;-76
2023/07/29 06:14:56;;;;;;;3.38;2.50;;;;;;;;;;4909934;28;100328;-78
2023/07/29 06:17:22;;;;;;;3.42;2.67;;;;;;;;;;4912170;28;99242;-77
2023/07/29 06:19:49;;;;;;;2.88;2.67;;;;;;;;;;4909738;28;98719;-76
2023/07/29 06:22:15;;;;;;;3.70;2.42;;;;;;;;;;4911584;28;99463;-76
2023/07/29 06:24:42;;;;;;;3.85;2.10;;;;;;;;;;4910724;28;101730;-76
2023/07/29 06:27:08;;;;;;;3.92;2.20;;;;;;;;;;4913245;28;98310;-77
2023/07/29 06:29:35;;;;;;;6.18;2.80;;;;;;;;;;4913986;28;99278;-77
2023/07/29 06:32:01;;;;;;;2.60;2.40;;;;;;;;;;4912896;28;99099;-76
2023/07/29 06:34:28;;;;;;;4.82;2.22;;;;;;;;;;4911661;28;98315;-77
2023/07/29 06:36:54;;;;;;;2.53;2.30;;;;;;;;;;4911739;28;99591;-78
2023/07/29 06:39:20;;;;;;;5.35;2.30;;;;;;;;;;4908069;28;99792;-78
2023/07/29 06:41:47;;;;;;;4.53;2.40;;;;;;;;;;4903595;28;99318;-79
2023/07/29 06:44:13;;;;;;;5.32;2.22;;;;;;;;;;4904411;28;101012;-77
2023/07/29 06:46:40;;;;;;;3.63;2.22;;;;;;;;;;4910967;28;98261;-76
2023/07/29 06:49:07;;;;;;;2.67;1.73;;;;;;;;;;4913994;28;98710;-76
2023/07/29 06:51:35;;;;;;;3.58;2.05;;;;;;;;;;4914948;28;99960;-75
2023/07/29 06:54:02;;;;;;;6.07;2.22;;;;;;;;;;4914342;28;98274;-78
2023/07/29 06:56:28;;;;;;;9.20;3.13;;;;;;;;;;4914051;28;98587;-77
2023/07/29 06:58:55;;;;;;;8.50;2.90;;;;;;;;;;4912374;28;98937;-76
2023/07/29 07:01:21;;;;;;;3.88;2.70;;;;;;;;;;4914385;28;98232;-75
2023/07/29 07:03:48;;;;;;;5.82;2.80;;;;;;;;;;4913598;28;98952;-76
2023/07/29 07:06:14;;;;;;;6.88;2.80;;;;;;;;;;4913543;28;98655;-76
2023/07/29 07:08:41;;;;;;;7.30;3.15;;;;;;;;;;4912787;28;99810;-76
2023/07/29 07:11:08;;;;;;;5.63;2.65;;;;;;;;;;4910811;28;99889;-76
2023/07/29 07:13:35;;;;;;;3.70;2.97;;;;;;;;;;4901015;28;100147;-76
2023/07/29 07:16:03;;;;;;;5.97;3.53;;;;;;;;;;4913823;28;99435;-76
2023/07/29 07:18:30;;;;;;;7.50;3.13;;;;;;;;;;4913033;28;100521;-76
2023/07/29 07:20:56;;;;;;;3.08;2.58;;;;;;;;;;4915615;28;98409;-76
2023/07/29 07:23:23;;;;;;;8.52;3.33;;;;;;;;;;4912405;28;99108;-76
2023/07/29 07:25:49;;;;;;;7.57;3.65;;;;;;;;;;4913541;28;98428;-76
2023/07/29 07:28:16;;;;;;;6.97;2.92;;;;;;;;;;4911641;28;98495;-76
2023/07/29 07:30:42;;;;;;;4.25;2.75;;;;;;;;;;4912263;28;100250;-76
2023/07/29 07:33:09;;;;;;;2.90;2.63;;;;;;;;;;4912410;28;98237;-75
2023/07/29 07:35:35;;;;;;;5.63;2.40;;;;;;;;;;4912048;28;98930;-76
2023/07/29 07:38:03;;;;;;;4.07;3.20;;;;;;;;;;4913046;28;99024;-76
2023/07/29 07:40:30;;;;;;;3.45;3.10;;;;;;;;;;4916208;28;98783;-76
2023/07/29 07:42:57;;;;;;;4.03;2.80;;;;;;;;;;4934532;28;99425;-75
2023/07/29 07:45:23;;;;;;;2.88;2.63;;;;;;;;;;4922247;28;98245;-75
2023/07/29 07:47:51;;;;;;;3.30;3.00;;;;;;;;;;4911528;28;98795;-75
2023/07/29 07:50:17;;;;;;;5.13;3.40;;;;;;;;;;4911933;28;100053;-76
2023/07/29 07:52:44;;;;;;;3.17;2.90;;;;;;;;;;4912982;28;98231;-76
2023/07/29 07:55:10;;;;;;;3.35;2.80;;;;;;;;;;4913162;28;99564;-77
2023/07/29 07:57:37;;;;;;;2.97;2.78;;;;;;;;;;4911764;28;99954;-77
2023/07/29 08:00:04;;;;;;;3.15;2.85;;;;;;;;;;4912927;28;98330;-77
2023/07/29 08:02:38;;;;;;;3.53;2.97;;;;;;;;;;4908973;28;98125;-75
2023/07/29 08:05:04;;;;;;;3.03;2.60;;;;;;;;;;4904767;28;98953;-77
2023/07/29 08:07:32;;;;;;;3.75;2.80;;;;;;;;;;4912299;28;99404;-78
2023/07/29 08:09:58;;;;;;;4.03;2.50;;;;;;;;;;4911559;28;99113;-77
2023/07/29 08:12:25;;;;;;;2.47;2.28;;;;;;;;;;4911662;28;98239;-77
2023/07/29 08:14:51;;;;;;;3.30;2.05;;;;;;;;;;4911566;28;98573;-77
2023/07/29 08:17:18;;;;;;;2.95;2.35;;;;;;;;;;4927739;28;100117;-77
2023/07/29 08:19:44;;;;;;;2.78;2.30;;;;;;;;;;4932224;28;98217;-77
2023/07/29 08:22:11;;;;;;;3.40;2.28;;;;;;;;;;4931844;28;99663;-77
2023/07/29 08:24:40;;;;;;;2.28;2.08;;;;;;;;;;4926673;28;99775;-77
2023/07/29 08:27:06;;;;;;;6.13;2.55;;;;;;;;;;4915417;28;98060;-75
2023/07/29 08:29:33;;;;;;;1.75;1.65;;;;;;;;;;4912450;28;98940;-77
2023/07/29 08:31:59;;;;;;;4.25;2.10;;;;;;;;;;4907526;28;98380;-77
2023/07/29 08:34:26;;;;;;;4.03;2.28;;;;;;;;;;4908557;28;99468;-76
2023/07/29 08:36:52;;;;;;;1.77;1.40;;;;;;;;;;4911330;28;99441;-75
2023/07/29 08:39:19;;;;;;;2.90;1.67;;;;;;;;;;4910565;28;98568;-75
2023/07/29 08:41:53;;;;;;;3.78;1.73;;;;;;;;;;4905725;28;99404;-77
2023/07/29 08:44:24;;;;;;;3.33;1.40;;;;;;;;;;4910032;28;99912;-76
2023/07/29 08:46:52;;;;;;;4.53;1.55;;;;;;;;;;4936336;22;98491;-76
2023/07/29 08:49:19;;;;;;;1.95;1.52;;;;;;;;;;4933069;28;99631;-78
2023/07/29 08:51:46;;;;;;;3.60;1.95;;;;;;;;;;4931404;28;98648;-78
2023/07/29 08:54:13;;;;;;;2.67;1.77;;;;;;;;;;4929360;28;99777;-79
2023/07/29 08:56:42;;;;;;;3.15;2.00;;;;;;;;;;4931469;28;100215;-76
2023/07/29 08:59:10;;;;;;;1.90;1.80;;;;;;;;;;4930841;28;98233;-77
2023/07/29 09:01:38;;;;;;;2.33;1.77;;;;;;;;;;4930738;28;98505;-77
2023/07/29 09:04:04;;;;;;;3.55;2.10;;;;;;;;;;4931192;28;99645;-77
2023/07/29 09:06:31;;;;;;;2.70;1.95;;;;;;;;;;4930198;28;99301;-77
2023/07/29 09:08:58;;;;;;;1.98;1.77;;;;;;;;;;4931472;28;99787;-77
2023/07/29 09:11:25;;;;;;;2.20;1.90;;;;;;;;;;4950491;28;99137;-78
2023/07/29 09:13:52;;;;;;;4.28;1.80;;;;;;;;;;4950247;28;99394;-77
2023/07/29 09:16:22;;;;;;;3.97;2.05;;;;;;;;;;4950063;28;99076;-77
2023/07/29 09:18:50;;;;;;;5.72;1.92;;;;;;;;;;4950679;28;98415;-77
2023/07/29 09:21:17;;;;;;;1.83;1.67;;;;;;;;;;4949714;28;99937;-77
2023/07/29 09:23:44;;;;;;;1.70;1.60;;;;;;;;;;4943093;28;98937;-77
2023/07/29 09:26:11;;;;;;;4.20;1.95;;;;;;;;;;4930339;28;98245;-78
2023/07/29 09:28:38;;;;;;;3.08;1.75;;;;;;;;;;4930976;28;98663;-75
2023/07/29 09:31:05;;;;;;;2.13;1.50;;;;;;;;;;4934098;28;100416;-75
2023/07/29 09:33:36;;;;;;;3.72;1.48;;;;;;;;;;4928370;28;98732;-75
2023/07/29 09:36:08;;;;;;;3.78;1.40;;;;;;;;;;4929400;28;99086;-75
2023/07/29 09:38:35;;;;;;;;;;;;;;;;;;4930792;28;98277;-76
2023/07/29 09:41:02;;;;;;;4.53;1.77;;;;;;;;;;4928789;28;120917;-77
2023/07/29 09:43:29;;;;;;;3.55;1.70;;;;;;;;;;4930794;28;99752;-75
2023/07/29 09:45:59;;;;;;;2.70;1.70;;;;;;;;;;4930705;28;98282;-77
2023/07/29 09:48:25;;;;;;;2.35;1.90;;;;;;;;;;4929465;28;99428;-77
2023/07/29 09:50:52;;;;;;;1.77;1.63;;;;;;;;;;4929860;28;99907;-78
2023/07/29 09:53:19;;;;;;;2.17;1.80;;;;;;;;;;4934009;28;98251;-77
2023/07/29 09:55:50;;;;;;;3.28;2.00;;;;;;;;;;4929671;28;99413;-77
2023/07/29 09:58:25;;;;;;;3.40;1.85;;;;;;;;;;4930367;28;98119;-77
2023/07/29 10:00:52;;;;;;;2.08;1.88;;;;;;;;;;4929565;28;99853;-78
2023/07/29 10:03:20;;;;;;;7.97;2.40;;;;;;;;;;4929508;28;100048;-77
2023/07/29 10:05:47;;;;;;;2.60;2.33;;;;;;;;;;4929452;28;98616;-78
2023/07/29 10:08:13;;;;;;;2.42;2.22;;;;;;;;;;4930526;28;99850;-78
2023/07/29 10:10:43;;;;;;;2.95;2.50;;;;;;;;;;4929456;28;99960;-77
2023/07/29 10:13:10;;;;;;;5.13;1.83;;;;;;;;;;4930481;28;98106;-78
2023/07/29 10:15:37;;;;;;;1.70;1.60;;;;;;;;;;4931035;28;99451;-78
2023/07/29 10:18:03;;;;;;;2.65;1.88;;;;;;;;;;4930097;28;98392;-77
2023/07/29 10:20:30;;;;;;;4.75;1.95;;;;;;;;;;4930568;28;98685;-77
2023/07/29 10:22:59;;;;;;;2.60;2.15;;;;;;;;;;4928924;28;99952;-77
2023/07/29 10:25:30;;;;;;;2.13;1.90;;;;;;;;;;4929214;28;98190;-77
2023/07/29 10:28:00;;;;;;;2.00;1.90;;;;;;;;;;4930413;28;99305;-78
2023/07/29 10:30:28;;;;;;;2.03;1.80;;;;;;;;;;4929192;28;99065;-79
2023/07/29 10:32:57;;;;;;;2.20;1.77;;;;;;;;;;4924445;28;99715;-78
2023/07/29 10:35:25;;;;;;;2.10;1.73;;;;;;;;;;4921160;28;99534;-78
2023/07/29 10:37:53;;;;;;;2.10;2.00;;;;;;;;;;4923588;28;99479;-78
2023/07/29 10:40:19;;;;;;;2.67;2.35;;;;;;;;;;4921757;28;99686;-78
2023/07/29 10:43:03;;;;;;;2.63;1.80;;;;;;;;;;4919293;28;100199;-78
2023/07/29 10:45:36;;;;;;;6.78;2.78;;;;;;;;;;4921285;28;98371;-78
2023/07/29 10:48:26;;;;;;;3.70;2.53;;;;;;;;;;4920385;28;100704;-78
2023/07/29 10:51:13;;;;;;;2.50;2.28;;;;;;;;;;4881725;28;100587;-77
2023/07/29 10:53:39;;;;;;;3.47;2.72;;;;;;;;;;4920860;28;98927;-76
2023/07/29 10:56:05;;;;;;;3.05;2.10;;;;;;;;;;4917432;28;99982;-77
2023/07/29 10:58:32;;;;;;;2.28;2.08;;;;;;;;;;4919579;28;100269;-78
2023/07/29 11:00:58;;;;;;;4.28;1.95;;;;;;;;;;4929368;28;98794;-78
2023/07/29 11:03:28;;;;;;;3.70;2.28;;;;;;;;;;4922836;28;100234;-76
2023/07/29 11:05:55;;;;;;;3.47;2.60;;;;;;;;;;4919440;28;98371;-79
2023/07/29 11:08:22;;;;;;;2.88;2.67;;;;;;;;;;4927016;28;99814;-75
2023/07/29 11:10:58;;;;;;;7.00;3.53;;;;;;;;;;4921208;28;102089;-75
2023/07/29 11:13:29;;;;;;;3.70;2.58;;;;;;;;;;4912693;28;98224;-77
2023/07/29 11:15:58;;;;;;;3.10;2.77;;;;;;;;;;4910846;28;98542;-77
2023/07/29 11:18:29;;;;;;;6.43;2.70;;;;;;;;;;4913090;28;100059;-77
2023/07/29 11:20:56;;;;;;;2.17;2.00;;;;;;;;;;4912890;28;98236;-76
2023/07/29 11:23:29;;;;;;;2.17;2.08;;;;;;;;;;4916680;28;100275;-77
2023/07/29 11:25:57;;;;;;;1.42;1.38;;;;;;;;;;4913994;28;98190;-78
2023/07/29 11:28:23;;;;;;;1.33;1.08;;;;;;;;;;4913046;28;98473;-77
2023/07/29 11:30:51;;;;;;;1.17;1.10;;;;;;;;;;4912658;28;100116;-77
2023/07/29 11:33:21;;;;;;;1.20;1.10;;;;;;;;;;4921923;28;98995;-76
2023/07/29 11:35:49;;;;;;;1.30;1.30;;;;;;;;;;4927808;28;100456;-75
2023/07/29 11:38:19;;;;;;;2.03;1.40;;;;;;;;;;4929566;28;99912;-76
2023/07/29 11:40:55;;;;;;;1.20;1.20;;;;;;;;;;4924855;28;98843;-76
2023/07/29 11:43:22;;;;;;;2.10;1.10;;;;;;;;;;4935084;28;99201;-76
2023/07/29 11:45:48;;;;;;;1.92;1.30;;;;;;;;;;4933519;28;98252;-77
2023/07/29 11:48:18;;;;;;;1.10;0.98;;;;;;;;;;4931649;28;99367;-76
2023/07/29 11:50:45;;;;;;;1.20;1.10;;;;;;;;;;4932850;28;100638;-76
2023/07/29 11:53:12;;;;;;;1.00;1.00;;;;;;;;;;4932179;28;98193;-76
2023/07/29 11:55:50;;;;;;;2.42;0.90;;;;;;;;;;4931492;28;98700;-76
2023/07/29 11:58:16;;;;;;;0.68;0.68;;;;;;;;;;4930856;28;100128;-76
2023/07/29 12:00:43;;;;;;;1.55;0.80;;;;;;;;;;4932489;28;98253;-77
2023/07/29 12:03:10;;;;;;;1.58;0.85;;;;;;;;;;4930659;28;98539;-76
2023/07/29 12:05:38;;;;;;;0.93;0.80;;;;;;;;;;4935460;28;99635;-77
2023/07/29 12:08:04;;;;;;;1.27;1.10;;;;;;;;;;4933518;28;99527;-76
2023/07/29 12:10:32;;;;;;;1.45;1.20;;;;;;;;;;4930893;28;99375;-77
2023/07/29 12:13:03;;;;;;;2.28;0.90;;;;;;;;;;4932133;28;98380;-76
2023/07/29 12:15:31;;;;;;;2.60;1.33;;;;;;;;;;4925609;28;98298;-76
2023/07/29 12:17:59;;;;;;;0.90;0.90;;;;;;;;;;4929625;28;99208;-76
2023/07/29 12:20:29;;;;;;;1.38;1.30;;;;;;;;;;4930855;28;98237;-77
2023/07/29 12:23:02;;;;;;;0.90;0.90;;;;;;;;;;4931249;28;99148;-77
2023/07/29 12:25:33;;;;;;;1.25;0.80;;;;;;;;;;4931759;28;99027;-76
2023/07/29 12:28:07;;;;;;;0.77;0.77;;;;;;;;;;4931826;28;98280;-78
2023/07/29 12:30:43;;;;;;;1.05;0.93;;;;;;;;;;4931625;28;99353;-75
2023/07/29 12:33:28;;;;;;;3.15;1.10;;;;;;;;;;4930445;28;98284;-78
2023/07/29 12:35:55;;;;;;;1.02;1.02;;;;;;;;;;4922225;28;98704;-76
2023/07/29 12:38:21;;;;;;;0.60;0.60;;;;;;;;;;4930860;28;99100;-78
2023/07/29 12:40:48;;;;;;;1.23;1.10;;;;;;;;;;4931333;28;98408;-77
2023/07/29 12:43:14;;;;;;;0.70;0.70;;;;;;;;;;4924565;28;99732;-76
2023/07/29 12:45:42;;;;;;;1.48;1.30;;;;;;;;;;4916878;28;98998;-77
2023/07/29 12:48:08;;;;;;;0.90;0.90;;;;;;;;;;4912163;28;98063;-76
2023/07/29 12:50:35;;;;;;;0.90;0.90;;;;;;;;;;4915156;28;99604;-77
2023/07/29 12:53:02;;;;;;;1.20;1.20;;;;;;;;;;4918511;28;98232;-77
2023/07/29 12:55:28;;;;;;;1.80;1.00;;;;;;;;;;4931279;28;98475;-77
2023/07/29 12:57:55;;;;;;;1.13;1.13;;;;;;;;;;4931549;28;99181;-77
2023/07/29 13:00:21;;;;;;;2.38;0.93;;;;;;;;;;4929659;28;98213;-77
2023/07/29 13:02:48;;;;;;;1.15;1.15;;;;;;;;;;4931566;28;98433;-77
2023/07/29 13:05:14;;;;;;;2.88;1.00;;;;;;;;;;4929423;28;99054;-77
2023/07/29 13:07:41;;;;;;;2.53;1.42;;;;;;;;;;4931580;28;98593;-78
2023/07/29 13:10:08;;;;;;;1.25;1.13;;;;;;;;;;4927948;28;99474;-77
2023/07/29 13:12:34;;;;;;;1.23;1.17;;;;;;;;;;4914146;28;99025;-76
2023/07/29 13:15:01;;;;;;;2.03;1.08;;;;;;;;;;4912142;28;99530;-76
2023/07/29 13:17:27;;;;;;;1.10;1.10;;;;;;;;;;4911521;28;99172;-76
2023/07/29 13:19:54;;;;;;;1.23;1.10;;;;;;;;;;4911076;28;98358;-76
2023/07/29 13:22:20;;;;;;;0.95;0.95;;;;;;;;;;4911483;28;98453;-77
2023/07/29 13:24:47;;;;;;;7.00;1.20;;;;;;;;;;4911374;28;100222;-78
2023/07/29 13:27:13;;;;;;;1.05;0.90;;;;;;;;;;4925007;28;98344;-76
2023/07/29 13:29:41;;;;;;;0.80;0.80;;;;;;;;;;4930780;28;99265;-76
2023/07/29 13:32:07;;;;;;;4.03;1.48;;;;;;;;;;4927920;28;99183;-76
2023/07/29 13:34:34;;;;;;;0.73;0.68;;;;;;;;;;4923277;28;98179;-77
2023/07/29 13:37:01;;;;;;;1.15;0.90;;;;;;;;;;4930914;28;99937;-76
2023/07/29 13:39:28;;;;;;;1.00;1.00;;;;;;;;;;4916097;28;98248;-76
2023/07/29 13:41:54;;;;;;;2.20;1.00;;;;;;;;;;4911038;28;99519;-75
2023/07/29 13:44:21;;;;;;;2.58;1.30;;;;;;;;;;4930382;28;99834;-75
2023/07/29 13:46:47;;;;;;;4.10;1.50;;;;;;;;;;4930825;28;98223;-75
2023/07/29 13:49:13;;;;;;;0.90;0.85;;;;;;;;;;4929905;28;98569;-76
2023/07/29 13:51:42;;;;;;;1.60;1.25;;;;;;;;;;4930347;28;99128;-74
2023/07/29 13:54:09;;;;;;;3.67;1.42;;;;;;;;;;4934270;28;98185;-77
2023/07/29 13:56:35;;;;;;;1.70;1.38;;;;;;;;;;4929737;28;99101;-76
2023/07/29 13:59:02;;;;;;;1.20;1.20;;;;;;;;;;4929328;28;98224;-75
2023/07/29 14:01:28;;;;;;;1.55;1.20;;;;;;;;;;4929823;28;99385;-75
2023/07/29 14:03:55;;;;;;;1.02;1.00;;;;;;;;;;4935959;28;99853;-76
2023/07/29 14:06:21;;;;;;;1.38;1.15;;;;;;;;;;4933754;28;98288;-78
2023/07/29 14:09:08;;;;;;;1.38;1.30;;;;;;;;;;4922452;28;99473;-77
2023/07/29 14:11:34;;;;;;;3.13;1.10;;;;;;;;;;4918842;28;98240;-77
2023/07/29 14:14:01;;;;;;;1.08;0.98;;;;;;;;;;4923492;28;98682;-77
2023/07/29 14:16:28;;;;;;;2.63;2.03;;;;;;;;;;4928049;28;99476;-75
2023/07/29 14:18:54;;;;;;;1.30;1.20;;;;;;;;;;4923565;28;99344;-76
2023/07/29 14:21:20;;;;;;;4.85;0.98;;;;;;;;;;4926578;28;99468;-76
2023/07/29 14:23:47;;;;;;;0.93;0.93;;;;;;;;;;4926364;28;99888;-77
2023/07/29 14:26:13;;;;;;;8.52;1.30;;;;;;;;;;4925598;28;100614;-77
2023/07/29 14:28:40;;;;;;;0.93;0.93;;;;;;;;;;4925850;28;99343;-76
2023/07/29 14:31:06;;;;;;;1.17;1.13;;;;;;;;;;4925786;28;99898;-76
2023/07/29 14:33:32;;;;;;;1.15;1.15;;;;;;;;;;4925721;28;98983;-77
2023/07/29 14:35:59;;;;;;;1.40;1.02;;;;;;;;;;4918077;28;99268;-76
2023/07/29 14:38:26;;;;;;;1.85;0.90;;;;;;;;;;4922278;28;100486;-76
2023/07/29 14:40:54;;;;;;;2.33;1.00;;;;;;;;;;4919492;28;99747;-76
2023/07/29 14:43:20;;;;;;;1.27;1.05;;;;;;;;;;4916112;28;99831;-76